sensor_id;sensor_type;location;lat;lon;timestamp;P1;P2;P0
55304;PMS7003;65692;51.378;19.824;2023-03-02T00:01:12;266.50;203.25;117.75
55304;PMS7003;65692;51.378;19.824;2023-03-02T00:04:04;243.25;184.50;117.00
55304;PMS7003;65692;51.378;19.824;2023-03-02T00:21:43;255.75;196.75;112.75
55304;PMS7003;65692;51.378;19.824;2023-03-02T00:24:29;214.00;173.25;108.25
55304;PMS7003;65692;51.378;19.824;2023-03-02T00:26:56;226.50;178.75;107.75
55304;PMS7003;65692;51.378;19.824;2023-03-02T00:29:54;208.00;162.00;94.50
55304;PMS7003;65692;51.378;19.824;2023-03-02T00:35:18;194.00;150.50;96.75
55304;PMS7003;65692;51.378;19.824;2023-03-02T00:40:28;174.75;134.00;86.50
55304;PMS7003;65692;51.378;19.824;2023-03-02T00:54:20;220.75;173.50;106.50
55304;PMS7003;65692;51.378;19.824;2023-03-02T01:00:44;296.00;237.75;139.00
55304;PMS7003;65692;51.378;19.824;2023-03-02T01:12:18;277.50;218.75;130.00
55304;PMS7003;65692;51.378;19.824;2023-03-02T01:15:05;243.25;196.50;115.25
55304;PMS7003;65692;51.378;19.824;2023-03-02T01:18:02;292.50;221.75;128.00
55304;PMS7003;65692;51.378;19.824;2023-03-02T01:34:24;264.00;205.50;126.25
55304;PMS7003;65692;51.378;19.824;2023-03-02T01:46:11;258.50;204.00;118.00
55304;PMS7003;65692;51.378;19.824;2023-03-02T01:49:33;244.50;190.50;103.50
55304;PMS7003;65692;51.378;19.824;2023-03-02T02:11:41;259.00;205.75;122.00
55304;PMS7003;65692;51.378;19.824;2023-03-02T02:29:38;231.75;188.50;119.00
55304;PMS7003;65692;51.378;19.824;2023-03-02T02:49:33;153.00;123.67;80.33
55304;PMS7003;65692;51.378;19.824;2023-03-02T03:00:17;197.00;164.75;98.50
55304;PMS7003;65692;51.378;19.824;2023-03-02T03:03:23;169.25;135.00;84.50
55304;PMS7003;65692;51.378;19.824;2023-03-02T03:10:31;157.67;129.67;82.67
55304;PMS7003;65692;51.378;19.824;2023-03-02T03:13:56;183.25;153.25;93.25
55304;PMS7003;65692;51.378;19.824;2023-03-02T03:17:13;215.50;162.25;98.00
55304;PMS7003;65692;51.378;19.824;2023-03-02T03:20:14;77.75;51.00;41.50
55304;PMS7003;65692;51.378;19.824;2023-03-02T03:25:57;196.75;165.00;103.50
55304;PMS7003;65692;51.378;19.824;2023-03-02T03:28:33;181.67;151.00;93.67
55304;PMS7003;65692;51.378;19.824;2023-03-02T03:31:27;219.00;174.00;103.50
55304;PMS7003;65692;51.378;19.824;2023-03-02T03:34:04;196.75;150.75;92.25
55304;PMS7003;65692;51.378;19.824;2023-03-02T03:37:17;180.50;140.25;86.25
55304;PMS7003;65692;51.378;19.824;2023-03-02T04:11:45;213.50;164.50;102.75
55304;PMS7003;65692;51.378;19.824;2023-03-02T04:14:12;201.75;173.50;107.00
55304;PMS7003;65692;51.378;19.824;2023-03-02T04:16:44;233.50;180.00;106.50
55304;PMS7003;65692;51.378;19.824;2023-03-02T04:19:13;231.00;173.00;97.00
55304;PMS7003;65692;51.378;19.824;2023-03-02T04:22:02;207.25;161.75;99.00
55304;PMS7003;65692;51.378;19.824;2023-03-02T04:27:24;171.00;136.50;84.50
55304;PMS7003;65692;51.378;19.824;2023-03-02T04:29:50;198.25;162.50;99.25
55304;PMS7003;65692;51.378;19.824;2023-03-02T04:32:21;200.50;162.75;105.75
55304;PMS7003;65692;51.378;19.824;2023-03-02T04:34:47;202.00;146.67;93.67
55304;PMS7003;65692;51.378;19.824;2023-03-02T04:37:14;215.75;166.50;98.25
55304;PMS7003;65692;51.378;19.824;2023-03-02T04:39:41;221.75;172.50;103.50
55304;PMS7003;65692;51.378;19.824;2023-03-02T04:42:08;175.50;148.75;91.00
55304;PMS7003;65692;51.378;19.824;2023-03-02T04:44:35;181.75;132.25;82.25
55304;PMS7003;65692;51.378;19.824;2023-03-02T04:47:01;193.75;159.75;96.00
55304;PMS7003;65692;51.378;19.824;2023-03-02T04:49:28;200.25;160.00;98.75
55304;PMS7003;65692;51.378;19.824;2023-03-02T04:51:54;221.25;171.00;102.75
55304;PMS7003;65692;51.378;19.824;2023-03-02T04:54:24;238.00;181.50;110.00
55304;PMS7003;65692;51.378;19.824;2023-03-02T04:56:51;150.25;117.00;69.25
55304;PMS7003;65692;51.378;19.824;2023-03-02T04:59:20;169.33;135.67;88.00
55304;PMS7003;65692;51.378;19.824;2023-03-02T05:01:47;145.50;126.00;73.25
55304;PMS7003;65692;51.378;19.824;2023-03-02T05:04:14;158.67;126.00;79.67
55304;PMS7003;65692;51.378;19.824;2023-03-02T05:06:41;213.25;165.25;98.25
55304;PMS7003;65692;51.378;19.824;2023-03-02T05:09:07;189.50;162.25;99.50
55304;PMS7003;65692;51.378;19.824;2023-03-02T05:11:34;181.50;147.00;88.50
55304;PMS7003;65692;51.378;19.824;2023-03-02T05:14:04;191.50;142.00;88.00
55304;PMS7003;65692;51.378;19.824;2023-03-02T05:16:32;149.67;127.00;79.00
55304;PMS7003;65692;51.378;19.824;2023-03-02T05:19:00;152.33;115.00;69.67
55304;PMS7003;65692;51.378;19.824;2023-03-02T05:21:26;165.67;125.33;83.33
55304;PMS7003;65692;51.378;19.824;2023-03-02T05:23:53;175.75;139.25;81.75
55304;PMS7003;65692;51.378;19.824;2023-03-02T05:26:19;187.25;145.75;90.25
55304;PMS7003;65692;51.378;19.824;2023-03-02T05:28:46;186.00;144.00;85.25
55304;PMS7003;65692;51.378;19.824;2023-03-02T05:31:20;159.67;126.67;78.67
55304;PMS7003;65692;51.378;19.824;2023-03-02T05:33:46;117.00;96.33;55.67
55304;PMS7003;65692;51.378;19.824;2023-03-02T05:36:13;162.00;116.33;72.67
55304;PMS7003;65692;51.378;19.824;2023-03-02T05:38:42;146.67;109.67;66.00
55304;PMS7003;65692;51.378;19.824;2023-03-02T05:41:09;138.33;114.33;68.67
55304;PMS7003;65692;51.378;19.824;2023-03-02T05:43:35;140.33;112.00;76.00
55304;PMS7003;65692;51.378;19.824;2023-03-02T05:46:02;174.67;133.67;82.67
55304;PMS7003;65692;51.378;19.824;2023-03-02T05:48:30;166.00;129.00;77.33
55304;PMS7003;65692;51.378;19.824;2023-03-02T05:50:57;149.67;119.67;77.00
55304;PMS7003;65692;51.378;19.824;2023-03-02T05:53:23;138.67;116.67;70.67
55304;PMS7003;65692;51.378;19.824;2023-03-02T05:55:50;127.00;96.67;58.00
55304;PMS7003;65692;51.378;19.824;2023-03-02T05:58:17;160.67;131.00;80.00
55304;PMS7003;65692;51.378;19.824;2023-03-02T06:00:44;151.67;125.33;78.33
55304;PMS7003;65692;51.378;19.824;2023-03-02T06:03:11;142.00;117.33;70.00
55304;PMS7003;65692;51.378;19.824;2023-03-02T06:05:37;140.00;112.67;71.00
55304;PMS7003;65692;51.378;19.824;2023-03-02T06:08:04;157.67;127.67;85.00
55304;PMS7003;65692;51.378;19.824;2023-03-02T06:10:31;198.67;158.33;93.00
55304;PMS7003;65692;51.378;19.824;2023-03-02T06:12:58;199.50;168.50;104.50
55304;PMS7003;65692;51.378;19.824;2023-03-02T06:15:24;228.00;191.50;117.00
55304;PMS7003;65692;51.378;19.824;2023-03-02T06:17:58;256.00;208.75;129.25
55304;PMS7003;65692;51.378;19.824;2023-03-02T06:20:24;249.50;203.50;122.25
55304;PMS7003;65692;51.378;19.824;2023-03-02T06:22:53;259.50;202.25;116.00
55304;PMS7003;65692;51.378;19.824;2023-03-02T06:25:21;335.00;275.75;172.50
55304;PMS7003;65692;51.378;19.824;2023-03-02T06:27:48;318.00;259.25;151.75
55304;PMS7003;65692;51.378;19.824;2023-03-02T06:30:17;291.50;231.75;134.25
55304;PMS7003;65692;51.378;19.824;2023-03-02T06:32:44;195.75;165.75;101.25
55304;PMS7003;65692;51.378;19.824;2023-03-02T06:35:11;197.25;148.00;94.00
55304;PMS7003;65692;51.378;19.824;2023-03-02T06:37:38;186.00;156.33;88.67
55304;PMS7003;65692;51.378;19.824;2023-03-02T06:40:07;130.67;108.67;61.00
55304;PMS7003;65692;51.378;19.824;2023-03-02T06:42:35;142.67;113.33;67.00
55304;PMS7003;65692;51.378;19.824;2023-03-02T06:45:02;115.00;99.67;64.00
55304;PMS7003;65692;51.378;19.824;2023-03-02T06:47:29;137.67;99.00;63.67
55304;PMS7003;65692;51.378;19.824;2023-03-02T06:49:56;145.00;127.00;79.67
55304;PMS7003;65692;51.378;19.824;2023-03-02T06:52:22;141.00;105.67;69.67
55304;PMS7003;65692;51.378;19.824;2023-03-02T06:54:49;132.33;103.67;64.00
55304;PMS7003;65692;51.378;19.824;2023-03-02T06:57:15;129.00;110.00;65.67
55304;PMS7003;65692;51.378;19.824;2023-03-02T06:59:42;133.67;106.00;63.00
55304;PMS7003;65692;51.378;19.824;2023-03-02T07:02:10;149.67;119.67;70.00
55304;PMS7003;65692;51.378;19.824;2023-03-02T07:04:36;128.67;109.67;64.67
55304;PMS7003;65692;51.378;19.824;2023-03-02T07:07:03;116.67;105.00;78.67
55304;PMS7003;65692;51.378;19.824;2023-03-02T07:09:31;178.67;147.00;91.67
55304;PMS7003;65692;51.378;19.824;2023-03-02T07:11:59;163.00;132.33;71.33
55304;PMS7003;65692;51.378;19.824;2023-03-02T07:14:25;181.33;148.33;85.67
55304;PMS7003;65692;51.378;19.824;2023-03-02T07:16:52;178.33;140.00;89.67
55304;PMS7003;65692;51.378;19.824;2023-03-02T07:19:18;180.67;151.33;103.67
55304;PMS7003;65692;51.378;19.824;2023-03-02T07:21:45;209.25;183.25;110.50
55304;PMS7003;65692;51.378;19.824;2023-03-02T07:24:13;250.50;192.75;116.00
55304;PMS7003;65692;51.378;19.824;2023-03-02T07:26:40;259.00;212.75;130.50
55304;PMS7003;65692;51.378;19.824;2023-03-02T07:29:06;246.50;200.50;121.25
55304;PMS7003;65692;51.378;19.824;2023-03-02T07:31:33;272.75;217.25;128.00
55304;PMS7003;65692;51.378;19.824;2023-03-02T07:34:00;280.25;218.25;127.50
55304;PMS7003;65692;51.378;19.824;2023-03-02T07:36:26;366.75;296.75;171.75
55304;PMS7003;65692;51.378;19.824;2023-03-02T07:38:53;295.25;238.50;140.75
55304;PMS7003;65692;51.378;19.824;2023-03-02T07:41:20;317.50;261.00;152.00
55304;PMS7003;65692;51.378;19.824;2023-03-02T07:43:48;308.75;253.25;143.75
55304;PMS7003;65692;51.378;19.824;2023-03-02T07:46:14;317.00;259.50;149.00
55304;PMS7003;65692;51.378;19.824;2023-03-02T07:48:41;298.75;230.00;130.50
55304;PMS7003;65692;51.378;19.824;2023-03-02T07:51:07;295.00;239.25;140.25
55304;PMS7003;65692;51.378;19.824;2023-03-02T07:53:34;316.25;255.00;146.75
55304;PMS7003;65692;51.378;19.824;2023-03-02T07:56:04;315.75;245.25;142.00
55304;PMS7003;65692;51.378;19.824;2023-03-02T07:58:31;325.25;254.00;148.50
55304;PMS7003;65692;51.378;19.824;2023-03-02T08:01:04;304.00;241.00;139.25
55304;PMS7003;65692;51.378;19.824;2023-03-02T08:03:30;335.50;262.25;152.00
55304;PMS7003;65692;51.378;19.824;2023-03-02T08:05:57;317.25;254.50;142.25
55304;PMS7003;65692;51.378;19.824;2023-03-02T08:08:23;308.25;251.00;142.00
55304;PMS7003;65692;51.378;19.824;2023-03-02T08:10:50;294.50;244.50;142.75
55304;PMS7003;65692;51.378;19.824;2023-03-02T08:13:16;255.75;208.25;119.00
55304;PMS7003;65692;51.378;19.824;2023-03-02T08:15:43;213.50;170.50;107.50
55304;PMS7003;65692;51.378;19.824;2023-03-02T08:18:09;240.00;183.25;111.50
55304;PMS7003;65692;51.378;19.824;2023-03-02T08:20:36;249.50;193.00;116.50
55304;PMS7003;65692;51.378;19.824;2023-03-02T08:23:05;279.00;228.00;132.50
55304;PMS7003;65692;51.378;19.824;2023-03-02T08:25:32;277.25;227.00;131.25
55304;PMS7003;65692;51.378;19.824;2023-03-02T08:27:58;245.50;204.00;121.75
55304;PMS7003;65692;51.378;19.824;2023-03-02T08:30:25;128.00;101.25;59.75
55304;PMS7003;65692;51.378;19.824;2023-03-02T08:32:53;177.67;149.67;92.00
55304;PMS7003;65692;51.378;19.824;2023-03-02T08:35:20;146.67;122.67;77.33
55304;PMS7003;65692;51.378;19.824;2023-03-02T08:37:47;179.33;149.33;89.33
55304;PMS7003;65692;51.378;19.824;2023-03-02T08:40:15;173.67;145.00;84.33
55304;PMS7003;65692;51.378;19.824;2023-03-02T08:42:44;162.00;133.00;78.33
55304;PMS7003;65692;51.378;19.824;2023-03-02T08:45:11;123.33;104.00;64.67
55304;PMS7003;65692;51.378;19.824;2023-03-02T08:47:37;138.67;109.33;66.00
55304;PMS7003;65692;51.378;19.824;2023-03-02T08:50:04;119.00;106.67;71.00
55304;PMS7003;65692;51.378;19.824;2023-03-02T08:52:33;109.00;94.00;63.00
55304;PMS7003;65692;51.378;19.824;2023-03-02T08:55:00;125.75;102.25;61.50
55304;PMS7003;65692;51.378;19.824;2023-03-02T08:57:32;127.75;97.25;56.00
55304;PMS7003;65692;51.378;19.824;2023-03-02T09:00:03;103.25;83.50;51.00
55304;PMS7003;65692;51.378;19.824;2023-03-02T09:02:33;107.00;82.25;52.50
55304;PMS7003;65692;51.378;19.824;2023-03-02T09:05:00;104.50;85.00;54.50
55304;PMS7003;65692;51.378;19.824;2023-03-02T09:07:26;98.00;79.75;50.00
55304;PMS7003;65692;51.378;19.824;2023-03-02T09:09:53;98.25;68.00;40.25
55304;PMS7003;65692;51.378;19.824;2023-03-02T09:12:19;102.25;81.50;48.50
55304;PMS7003;65692;51.378;19.824;2023-03-02T09:14:46;103.75;76.00;46.25
55304;PMS7003;65692;51.378;19.824;2023-03-02T09:17:13;101.75;77.50;50.00
55304;PMS7003;65692;51.378;19.824;2023-03-02T09:19:41;163.33;140.67;85.00
55304;PMS7003;65692;51.378;19.824;2023-03-02T09:22:09;142.33;115.67;63.67
55304;PMS7003;65692;51.378;19.824;2023-03-02T09:24:39;147.33;119.33;73.33
55304;PMS7003;65692;51.378;19.824;2023-03-02T09:27:05;144.00;107.67;66.00
55304;PMS7003;65692;51.378;19.824;2023-03-02T09:29:32;158.67;129.33;77.00
55304;PMS7003;65692;51.378;19.824;2023-03-02T09:31:58;120.50;96.50;61.50
55304;PMS7003;65692;51.378;19.824;2023-03-02T09:34:28;135.00;109.75;67.00
55304;PMS7003;65692;51.378;19.824;2023-03-02T09:36:54;130.50;109.25;69.25
55304;PMS7003;65692;51.378;19.824;2023-03-02T09:39:23;116.50;94.25;60.00
55304;PMS7003;65692;51.378;19.824;2023-03-02T09:41:59;115.25;90.50;57.00
55304;PMS7003;65692;51.378;19.824;2023-03-02T09:52:39;100.75;80.00;46.00
55304;PMS7003;65692;51.378;19.824;2023-03-02T09:55:14;103.00;78.50;50.00
55304;PMS7003;65692;51.378;19.824;2023-03-02T09:57:41;104.75;85.00;50.75
55304;PMS7003;65692;51.378;19.824;2023-03-02T10:00:26;96.75;77.50;46.00
55304;PMS7003;65692;51.378;19.824;2023-03-02T10:02:54;103.75;85.50;53.25
55304;PMS7003;65692;51.378;19.824;2023-03-02T10:05:40;118.25;98.25;56.25
55304;PMS7003;65692;51.378;19.824;2023-03-02T10:08:25;109.25;86.25;49.00
55304;PMS7003;65692;51.378;19.824;2023-03-02T10:13:37;102.50;81.50;49.75
55304;PMS7003;65692;51.378;19.824;2023-03-02T10:16:11;99.50;78.25;48.75
55304;PMS7003;65692;51.378;19.824;2023-03-02T10:18:48;94.50;69.25;45.00
55304;PMS7003;65692;51.378;19.824;2023-03-02T10:21:56;105.50;83.00;51.00
55304;PMS7003;65692;51.378;19.824;2023-03-02T10:24:31;100.50;81.75;49.75
55304;PMS7003;65692;51.378;19.824;2023-03-02T10:27:10;108.50;92.00;59.00
55304;PMS7003;65692;51.378;19.824;2023-03-02T10:29:46;112.00;91.50;56.25
55304;PMS7003;65692;51.378;19.824;2023-03-02T10:32:19;121.75;98.50;58.50
55304;PMS7003;65692;51.378;19.824;2023-03-02T10:34:47;127.00;96.75;58.00
55304;PMS7003;65692;51.378;19.824;2023-03-02T10:37:16;121.75;98.75;59.50
55304;PMS7003;65692;51.378;19.824;2023-03-02T10:39:43;124.00;98.75;62.25
55304;PMS7003;65692;51.378;19.824;2023-03-02T10:42:13;130.50;100.75;59.75
55304;PMS7003;65692;51.378;19.824;2023-03-02T10:44:42;128.25;105.00;64.00
55304;PMS7003;65692;51.378;19.824;2023-03-02T10:47:18;119.75;99.75;62.00
55304;PMS7003;65692;51.378;19.824;2023-03-02T10:49:46;146.00;123.00;73.50
55304;PMS7003;65692;51.378;19.824;2023-03-02T10:52:13;140.00;117.00;67.75
55304;PMS7003;65692;51.378;19.824;2023-03-02T10:54:40;124.75;105.25;66.75
55304;PMS7003;65692;51.378;19.824;2023-03-02T10:59:56;149.50;114.00;70.50
55304;PMS7003;65692;51.378;19.824;2023-03-02T11:02:25;145.67;120.00;75.00
55304;PMS7003;65692;51.378;19.824;2023-03-02T11:04:53;135.25;109.00;69.25
55304;PMS7003;65692;51.378;19.824;2023-03-02T11:07:24;129.67;120.33;71.67
55304;PMS7003;65692;51.378;19.824;2023-03-02T11:12:23;163.33;135.67;83.33
55304;PMS7003;65692;51.378;19.824;2023-03-02T11:15:00;135.75;109.00;66.50
55304;PMS7003;65692;51.378;19.824;2023-03-02T11:19:53;134.75;104.75;66.50
55304;PMS7003;65692;51.378;19.824;2023-03-02T11:24:55;131.50;106.75;65.00
55304;PMS7003;65692;51.378;19.824;2023-03-02T11:27:27;117.25;99.00;61.25
55304;PMS7003;65692;51.378;19.824;2023-03-02T11:32:43;131.75;110.25;69.25
55304;PMS7003;65692;51.378;19.824;2023-03-02T11:35:15;146.33;121.67;75.33
55304;PMS7003;65692;51.378;19.824;2023-03-02T11:37:51;122.75;100.25;61.25
55304;PMS7003;65692;51.378;19.824;2023-03-02T11:42:44;103.75;94.25;60.25
55304;PMS7003;65692;51.378;19.824;2023-03-02T11:50:51;120.75;91.75;57.00
55304;PMS7003;65692;51.378;19.824;2023-03-02T11:53:18;106.75;89.00;54.75
55304;PMS7003;65692;51.378;19.824;2023-03-02T11:55:47;118.75;94.25;58.50
55304;PMS7003;65692;51.378;19.824;2023-03-02T11:58:21;107.50;92.00;57.75
55304;PMS7003;65692;51.378;19.824;2023-03-02T12:00:48;109.75;92.00;55.75
55304;PMS7003;65692;51.378;19.824;2023-03-02T12:03:22;110.50;97.50;60.00
55304;PMS7003;65692;51.378;19.824;2023-03-02T12:13:30;104.33;75.33;39.33
55304;PMS7003;65692;51.378;19.824;2023-03-02T12:15:58;103.25;89.00;53.25
55304;PMS7003;65692;51.378;19.824;2023-03-02T12:18:26;145.67;123.00;75.00
55304;PMS7003;65692;51.378;19.824;2023-03-02T12:23:29;116.00;95.50;57.00
55304;PMS7003;65692;51.378;19.824;2023-03-02T12:28:40;107.50;90.00;58.75
55304;PMS7003;65692;51.378;19.824;2023-03-02T12:31:11;103.75;80.50;53.75
55304;PMS7003;65692;51.378;19.824;2023-03-02T12:33:46;92.25;72.00;44.50
55304;PMS7003;65692;51.378;19.824;2023-03-02T12:36:14;92.25;69.75;46.25
55304;PMS7003;65692;51.378;19.824;2023-03-02T12:38:42;94.00;78.50;48.25
55304;PMS7003;65692;51.378;19.824;2023-03-02T12:44:23;90.50;75.25;46.75
55304;PMS7003;65692;51.378;19.824;2023-03-02T12:46:53;87.00;66.25;41.00
55304;PMS7003;65692;51.378;19.824;2023-03-02T12:49:28;97.25;81.75;48.75
55304;PMS7003;65692;51.378;19.824;2023-03-02T12:51:59;90.00;67.00;42.50
55304;PMS7003;65692;51.378;19.824;2023-03-02T12:54:30;88.50;66.00;44.00
55304;PMS7003;65692;51.378;19.824;2023-03-02T12:57:11;93.00;66.50;42.50
55304;PMS7003;65692;51.378;19.824;2023-03-02T12:59:41;87.75;64.75;40.75
55304;PMS7003;65692;51.378;19.824;2023-03-02T13:02:16;90.75;69.75;45.50
55304;PMS7003;65692;51.378;19.824;2023-03-02T13:04:42;87.50;66.00;42.00
55304;PMS7003;65692;51.378;19.824;2023-03-02T13:07:21;93.50;69.50;45.75
55304;PMS7003;65692;51.378;19.824;2023-03-02T13:09:48;94.75;76.50;45.50
55304;PMS7003;65692;51.378;19.824;2023-03-02T13:12:22;93.00;72.50;46.75
55304;PMS7003;65692;51.378;19.824;2023-03-02T13:14:51;95.50;77.00;48.25
55304;PMS7003;65692;51.378;19.824;2023-03-02T13:17:20;95.50;77.00;49.00
55304;PMS7003;65692;51.378;19.824;2023-03-02T13:19:50;97.75;80.50;50.25
55304;PMS7003;65692;51.378;19.824;2023-03-02T13:22:16;92.00;70.25;43.25
55304;PMS7003;65692;51.378;19.824;2023-03-02T13:24:54;98.50;80.75;50.75
55304;PMS7003;65692;51.378;19.824;2023-03-02T13:27:22;98.00;79.50;48.75
55304;PMS7003;65692;51.378;19.824;2023-03-02T13:29:49;100.25;82.25;50.00
55304;PMS7003;65692;51.378;19.824;2023-03-02T13:32:19;96.50;78.25;49.75
55304;PMS7003;65692;51.378;19.824;2023-03-02T13:34:53;100.75;84.75;53.50
55304;PMS7003;65692;51.378;19.824;2023-03-02T13:37:37;90.00;66.50;41.00
55304;PMS7003;65692;51.378;19.824;2023-03-02T13:40:23;110.00;85.00;50.75
55304;PMS7003;65692;51.378;19.824;2023-03-02T13:42:54;96.50;77.50;48.00
55304;PMS7003;65692;51.378;19.824;2023-03-02T13:45:25;92.50;75.50;47.75
55304;PMS7003;65692;51.378;19.824;2023-03-02T13:47:52;94.25;77.00;48.50
55304;PMS7003;65692;51.378;19.824;2023-03-02T13:52:46;96.25;75.75;46.50
55304;PMS7003;65692;51.378;19.824;2023-03-02T13:55:14;81.25;61.75;40.00
55304;PMS7003;65692;51.378;19.824;2023-03-02T13:57:41;74.25;51.50;27.00
55304;PMS7003;65692;51.378;19.824;2023-03-02T14:00:12;83.50;63.50;41.00
55304;PMS7003;65692;51.378;19.824;2023-03-02T14:02:40;84.25;64.25;41.75
55304;PMS7003;65692;51.378;19.824;2023-03-02T14:05:15;85.25;62.25;42.00
55304;PMS7003;65692;51.378;19.824;2023-03-02T14:07:41;90.50;67.50;42.00
55304;PMS7003;65692;51.378;19.824;2023-03-02T14:10:08;84.75;61.00;38.75
55304;PMS7003;65692;51.378;19.824;2023-03-02T14:12:35;82.75;60.50;40.75
55304;PMS7003;65692;51.378;19.824;2023-03-02T14:15:02;76.00;60.00;39.00
55304;PMS7003;65692;51.378;19.824;2023-03-02T14:17:29;70.75;53.25;34.50
55304;PMS7003;65692;51.378;19.824;2023-03-02T14:19:55;67.25;51.75;34.00
55304;PMS7003;65692;51.378;19.824;2023-03-02T14:22:22;75.50;58.75;37.75
55304;PMS7003;65692;51.378;19.824;2023-03-02T14:24:50;72.25;56.00;34.25
55304;PMS7003;65692;51.378;19.824;2023-03-02T14:27:16;71.00;53.00;36.00
55304;PMS7003;65692;51.378;19.824;2023-03-02T14:29:44;69.50;54.25;35.50
55304;PMS7003;65692;51.378;19.824;2023-03-02T14:32:11;78.50;59.25;38.00
55304;PMS7003;65692;51.378;19.824;2023-03-02T14:34:40;76.75;56.25;37.00
55304;PMS7003;65692;51.378;19.824;2023-03-02T14:37:10;82.75;62.25;40.25
55304;PMS7003;65692;51.378;19.824;2023-03-02T14:42:05;82.00;62.00;41.00
55304;PMS7003;65692;51.378;19.824;2023-03-02T14:44:31;78.75;59.75;39.00
55304;PMS7003;65692;51.378;19.824;2023-03-02T14:46:58;77.50;58.00;39.00
55304;PMS7003;65692;51.378;19.824;2023-03-02T14:49:25;83.50;60.50;41.25
55304;PMS7003;65692;51.378;19.824;2023-03-02T14:51:59;78.00;60.00;38.25
55304;PMS7003;65692;51.378;19.824;2023-03-02T14:54:29;85.25;63.25;40.75
55304;PMS7003;65692;51.378;19.824;2023-03-02T14:57:00;73.50;55.75;35.25
55304;PMS7003;65692;51.378;19.824;2023-03-02T14:59:27;58.00;43.25;27.00
55304;PMS7003;65692;51.378;19.824;2023-03-02T15:01:53;70.75;51.75;35.50
55304;PMS7003;65692;51.378;19.824;2023-03-02T15:04:23;64.00;51.25;32.75
55304;PMS7003;65692;51.378;19.824;2023-03-02T15:06:50;39.75;36.75;27.00
55304;PMS7003;65692;51.378;19.824;2023-03-02T15:09:16;62.50;50.25;35.25
55304;PMS7003;65692;51.378;19.824;2023-03-02T15:11:43;71.75;55.00;34.75
55304;PMS7003;65692;51.378;19.824;2023-03-02T15:14:09;63.00;49.25;33.00
55304;PMS7003;65692;51.378;19.824;2023-03-02T15:16:35;76.50;57.75;39.00
55304;PMS7003;65692;51.378;19.824;2023-03-02T15:19:04;69.00;52.75;34.75
55304;PMS7003;65692;51.378;19.824;2023-03-02T15:21:34;77.75;56.25;35.50
55304;PMS7003;65692;51.378;19.824;2023-03-02T15:24:00;93.25;75.50;48.50
55304;PMS7003;65692;51.378;19.824;2023-03-02T15:26:27;91.50;66.25;43.00
55304;PMS7003;65692;51.378;19.824;2023-03-02T15:28:55;83.00;62.75;42.50
55304;PMS7003;65692;51.378;19.824;2023-03-02T15:31:25;90.75;67.75;44.00
55304;PMS7003;65692;51.378;19.824;2023-03-02T15:33:54;91.50;68.00;48.25
55304;PMS7003;65692;51.378;19.824;2023-03-02T15:36:20;90.75;66.25;42.25
55304;PMS7003;65692;51.378;19.824;2023-03-02T15:38:49;86.50;64.25;42.50
55304;PMS7003;65692;51.378;19.824;2023-03-02T15:41:18;71.00;54.75;36.00
55304;PMS7003;65692;51.378;19.824;2023-03-02T15:43:48;80.00;62.50;39.25
55304;PMS7003;65692;51.378;19.824;2023-03-02T15:46:15;71.75;55.75;36.50
55304;PMS7003;65692;51.378;19.824;2023-03-02T15:48:42;88.00;67.00;41.75
55304;PMS7003;65692;51.378;19.824;2023-03-02T15:51:10;89.25;65.75;42.00
55304;PMS7003;65692;51.378;19.824;2023-03-02T15:53:38;91.75;72.00;45.25
55304;PMS7003;65692;51.378;19.824;2023-03-02T15:56:07;86.75;66.50;43.50
55304;PMS7003;65692;51.378;19.824;2023-03-02T15:58:34;90.50;67.75;47.00
55304;PMS7003;65692;51.378;19.824;2023-03-02T16:01:07;133.75;104.25;68.50
55304;PMS7003;65692;51.378;19.824;2023-03-02T16:03:37;139.75;115.00;63.50
55304;PMS7003;65692;51.378;19.824;2023-03-02T16:06:03;146.00;117.00;71.33
55304;PMS7003;65692;51.378;19.824;2023-03-02T16:08:34;85.50;65.50;42.50
55304;PMS7003;65692;51.378;19.824;2023-03-02T16:11:01;141.50;114.50;66.25
55304;PMS7003;65692;51.378;19.824;2023-03-02T16:13:28;102.00;90.00;65.25
55304;PMS7003;65692;51.378;19.824;2023-03-02T16:15:59;99.50;81.25;50.75
55304;PMS7003;65692;51.378;19.824;2023-03-02T16:18:29;92.75;68.50;44.75
55304;PMS7003;65692;51.378;19.824;2023-03-02T16:20:58;89.50;67.75;44.00
55304;PMS7003;65692;51.378;19.824;2023-03-02T16:23:25;91.00;71.00;45.00
55304;PMS7003;65692;51.378;19.824;2023-03-02T16:26:06;95.25;72.75;44.00
55304;PMS7003;65692;51.378;19.824;2023-03-02T16:28:33;91.25;68.25;45.00
55304;PMS7003;65692;51.378;19.824;2023-03-02T16:31:02;92.75;70.50;43.00
55304;PMS7003;65692;51.378;19.824;2023-03-02T16:33:29;90.00;66.75;42.00
55304;PMS7003;65692;51.378;19.824;2023-03-02T16:35:56;88.00;61.50;36.00
55304;PMS7003;65692;51.378;19.824;2023-03-02T16:38:22;86.00;65.75;42.00
55304;PMS7003;65692;51.378;19.824;2023-03-02T16:40:53;99.75;75.50;47.50
55304;PMS7003;65692;51.378;19.824;2023-03-02T16:43:22;89.50;67.75;44.00
55304;PMS7003;65692;51.378;19.824;2023-03-02T16:45:50;94.75;74.00;44.00
55304;PMS7003;65692;51.378;19.824;2023-03-02T16:48:16;93.00;68.00;43.50
55304;PMS7003;65692;51.378;19.824;2023-03-02T16:50:43;88.25;67.50;44.00
55304;PMS7003;65692;51.378;19.824;2023-03-02T16:53:10;93.75;70.75;44.50
55304;PMS7003;65692;51.378;19.824;2023-03-02T16:55:40;88.00;67.00;42.25
55304;PMS7003;65692;51.378;19.824;2023-03-02T16:58:06;89.50;66.75;43.50
55304;PMS7003;65692;51.378;19.824;2023-03-02T17:00:35;87.00;64.75;40.00
55304;PMS7003;65692;51.378;19.824;2023-03-02T17:03:22;92.00;67.00;43.50
55304;PMS7003;65692;51.378;19.824;2023-03-02T17:05:48;87.25;65.25;43.00
55304;PMS7003;65692;51.378;19.824;2023-03-02T17:08:15;92.50;68.00;41.50
55304;PMS7003;65692;51.378;19.824;2023-03-02T17:10:45;85.00;65.25;41.75
55304;PMS7003;65692;51.378;19.824;2023-03-02T17:13:11;86.75;68.00;42.75
55304;PMS7003;65692;51.378;19.824;2023-03-02T17:15:43;91.50;68.75;44.00
55304;PMS7003;65692;51.378;19.824;2023-03-02T17:18:10;105.75;78.50;51.25
55304;PMS7003;65692;51.378;19.824;2023-03-02T17:20:37;91.50;68.75;43.75